Terminal Aerodrome Forecast
Issued by NWS Kansas City/Pleasant Hill, MO

Home | Current Version | Previous Version | Text Only | Print | Product List | Glossary On
Versions: 1 2 3 4 5 6 7 8 9 10 11 12 13 14 15 16 17 18
199
FTUS43 KEAX 152321
TAFMCI
TAF
KMCI 152321Z 1600/1624 14008KT P6SM FEW035 BKN200
     FM160700 15007KT P6SM VCTS SCT070CB BKN200
     FM160900 15008KT P6SM -TSRA OVC045CB
     FM161500 VRB06KT P6SM VCTS OVC090CB=

USA.gov is the U.S. government's official web portal to all federal, state and local government web resources and services.